Terminal Aerodrome Forecast
Issued by NWS Upton, NY

Home | Current Version | Previous Version | Text Only | Print | Product List | Glossary On
Versions: 1 2 3 4 5 6 7 8 9 10 11 12 13 14 15 16 17 18 19 20 21 22 23 24 25 26 27 28 29 30
900
FTUS41 KOKX 270537
TAFEWR
TAF
KEWR 270537Z 2706/2812 18010KT P6SM -SHRA SCT025 BKN030 OVC040
     FM270800 22009KT 3SM -SHRA BR BKN010 OVC025
     FM271100 25008KT P6SM VCSH BKN012 OVC020
     FM271400 28008KT P6SM SCT025 BKN250
     FM272000 22009KT P6SM BKN040
     FM280400 02007KT P6SM SCT250=

USA.gov is the U.S. government's official web portal to all federal, state and local government web resources and services.